New Hope, Kentucky
Current Conditions -  °F | °C
As of 12:58 AM on Tuesday 21 Oct 2014 (Local Time) from KFTK Reporting Station
Clear Clear  
Wind Chill: 52°   Ceiling: Unl
Heat Index: 52°   Visibility: 10mi
Dew Point: 49°   Wind: 6mph
Humidity: 88%   Direction: 260°W
Pressure: 29.95"   Gusts: NA
Location:  37.63°N, 85.51°W
Report Text: KFTK 210458Z AUTO 26005KT 10SM CLR 11/09 A2995 RMK AO2 SLP144 T01110092 401990055
Loading
Personal Weather Stations






























Interactive Weather Map
Tropical Storm Tracking
New forecast layout! Learn more

10-Day Weather Forecast

Advertisements
Track Severe Weather on mobile